createdAt,value
2023-02-12T00:02:04.049Z,23.15
2023-02-12T00:04:30.873Z,21.15
2023-02-12T00:06:57.616Z,18.95
2023-02-12T00:09:24.405Z,20.02
2023-02-12T00:11:51.277Z,18.73
2023-02-12T00:14:18.519Z,20.98
2023-02-12T00:16:45.338Z,19.70
2023-02-12T00:19:12.082Z,21.92
2023-02-12T00:21:38.860Z,24.25
2023-02-12T00:24:05.774Z,22.30
2023-02-12T00:26:32.726Z,22.57
2023-02-12T00:28:59.426Z,22.48
2023-02-12T00:31:29.558Z,22.02
2023-02-12T00:33:57.021Z,23.17
2023-02-12T00:36:26.124Z,19.77
2023-02-12T00:38:54.648Z,21.33
2023-02-12T00:41:22.465Z,19.73
2023-02-12T00:43:49.976Z,21.30
2023-02-12T00:46:17.130Z,18.75
2023-02-12T00:48:43.918Z,18.93
2023-02-12T00:51:10.825Z,18.63
2023-02-12T00:53:38.140Z,18.05
2023-02-12T00:56:05.349Z,20.95
2023-02-12T00:58:32.312Z,20.27
2023-02-12T01:00:59.035Z,21.25
2023-02-12T01:03:26.007Z,21.33
2023-02-12T01:05:53.941Z,21.00
2023-02-12T01:08:20.991Z,18.77
2023-02-12T01:10:56.746Z,19.93
2023-02-12T01:13:25.599Z,18.30
2023-02-12T01:16:21.972Z,19.75
2023-02-12T01:18:49.684Z,21.15
2023-02-12T01:21:21.951Z,20.70
2023-02-12T01:23:49.710Z,20.00
2023-02-12T01:26:17.722Z,19.40
2023-02-12T01:28:48.492Z,21.58
2023-02-12T01:31:18.348Z,19.30
2023-02-12T01:33:48.993Z,19.55
2023-02-12T01:36:15.714Z,20.75
2023-02-12T01:38:42.611Z,20.17
2023-02-12T01:41:15.325Z,21.50
2023-02-12T01:43:42.504Z,20.90
2023-02-12T01:46:13.953Z,19.70
2023-02-12T01:48:44.758Z,22.35
2023-02-12T01:51:17.335Z,21.05
2023-02-12T01:53:50.536Z,20.77
2023-02-12T01:56:18.110Z,19.58
2023-02-12T01:58:46.150Z,21.25
2023-02-12T02:01:24.008Z,19.90
2023-02-12T02:03:54.673Z,20.98
2023-02-12T02:06:27.787Z,21.52
2023-02-12T02:08:56.669Z,21.47
2023-02-12T02:11:42.304Z,22.17
2023-02-12T02:14:27.740Z,21.23
2023-02-12T02:17:08.013Z,21.45
2023-02-12T02:19:53.354Z,20.15
2023-02-12T02:22:31.896Z,22.00
2023-02-12T02:25:29.101Z,21.52
2023-02-12T02:28:01.988Z,19.92
2023-02-12T02:30:55.115Z,21.30
2023-02-12T02:33:27.793Z,22.00
2023-02-12T02:35:59.838Z,23.75
2023-02-12T02:38:41.428Z,21.08
2023-02-12T02:41:19.567Z,21.60
2023-02-12T02:43:50.022Z,23.38
2023-02-12T02:46:24.813Z,23.00
2023-02-12T02:49:00.496Z,21.67
2023-02-12T02:51:31.980Z,21.60
2023-02-12T02:54:06.872Z,22.20
2023-02-12T02:56:38.026Z,21.33
2023-02-12T02:59:13.063Z,22.40
2023-02-12T03:01:45.610Z,22.75
2023-02-12T03:04:32.961Z,22.48
2023-02-12T03:07:06.661Z,25.15
2023-02-12T03:09:43.574Z,24.48
2023-02-12T03:12:15.339Z,23.65
2023-02-12T03:14:53.957Z,22.60
2023-02-12T03:17:37.778Z,24.40
2023-02-12T03:20:12.285Z,23.20
2023-02-12T03:22:43.469Z,23.55
2023-02-12T03:25:15.066Z,21.80
2023-02-12T03:27:51.988Z,23.75
2023-02-12T03:30:20.856Z,22.02
2023-02-12T03:33:28.802Z,24.33
2023-02-12T03:36:07.808Z,22.27
2023-02-12T03:38:52.992Z,22.27
2023-02-12T03:41:28.570Z,23.80
2023-02-12T03:44:08.506Z,21.50
2023-02-12T03:47:11.536Z,23.55
2023-02-12T03:49:54.255Z,22.58
2023-02-12T03:52:21.203Z,20.67
2023-02-12T03:54:48.140Z,22.48
2023-02-12T03:57:22.612Z,21.95
2023-02-12T03:59:50.933Z,24.30
2023-02-12T04:02:19.141Z,24.05
2023-02-12T04:04:47.629Z,23.50
2023-02-12T04:07:15.630Z,24.13
2023-02-12T04:09:42.524Z,23.33
2023-02-12T04:12:15.785Z,24.17
2023-02-12T04:15:00.231Z,25.48
2023-02-12T04:17:50.193Z,25.38
2023-02-12T04:20:35.252Z,24.23
2023-02-12T04:23:15.481Z,25.55
2023-02-12T04:25:45.346Z,24.10
2023-02-12T04:28:30.637Z,24.25
2023-02-12T04:31:01.292Z,23.15
2023-02-12T04:33:39.595Z,24.15
2023-02-12T04:36:20.595Z,24.38
2023-02-12T04:39:00.991Z,25.85
2023-02-12T04:41:27.894Z,23.85
2023-02-12T04:43:54.780Z,28.30
2023-02-12T04:46:21.573Z,26.52
2023-02-12T04:48:57.373Z,28.30
2023-02-12T04:51:24.235Z,26.17
2023-02-12T04:53:51.073Z,26.00
2023-02-12T04:56:17.887Z,27.92
2023-02-12T04:58:44.759Z,26.92
2023-02-12T05:01:11.577Z,26.20
2023-02-12T05:03:38.569Z,25.42
2023-02-12T05:06:07.331Z,26.52
2023-02-12T05:08:34.153Z,25.27
2023-02-12T05:11:09.260Z,27.65
2023-02-12T05:13:36.503Z,28.48
2023-02-12T05:16:07.801Z,26.88
2023-02-12T05:18:36.809Z,26.67
2023-02-12T05:21:05.019Z,28.67
2023-02-12T05:23:34.421Z,27.27
2023-02-12T05:26:03.511Z,27.55
2023-02-12T05:28:30.705Z,27.00
2023-02-12T05:31:02.974Z,26.98
2023-02-12T05:33:30.045Z,29.27
2023-02-12T05:36:02.685Z,27.52
2023-02-12T05:38:29.577Z,27.73
2023-02-12T05:41:02.801Z,31.02
2023-02-12T05:43:29.537Z,29.23
2023-02-12T05:46:00.819Z,31.00
2023-02-12T05:48:28.513Z,29.20
2023-02-12T05:51:01.249Z,32.22
2023-02-12T05:53:28.005Z,29.85
2023-02-12T05:55:55.094Z,29.83
2023-02-12T05:58:22.013Z,31.85
2023-02-12T06:00:50.286Z,31.60
2023-02-12T06:03:18.594Z,32.40
2023-02-12T06:05:51.148Z,29.52
2023-02-12T06:08:18.436Z,39.25
2023-02-12T06:10:45.788Z,36.90
2023-02-12T06:13:12.918Z,34.75
2023-02-12T06:15:39.881Z,32.28
2023-02-12T06:18:07.652Z,31.92
2023-02-12T06:20:34.463Z,33.42
2023-02-12T06:23:01.285Z,32.03
2023-02-12T06:25:28.057Z,32.90
2023-02-12T06:27:55.455Z,32.65
2023-02-12T06:30:23.174Z,32.50
2023-02-12T06:32:51.473Z,37.45
2023-02-12T06:35:18.443Z,34.35
2023-02-12T06:37:45.419Z,37.05
2023-02-12T06:40:12.998Z,36.85
2023-02-12T06:42:40.113Z,38.80
2023-02-12T06:45:07.220Z,37.60
2023-02-12T06:47:34.020Z,36.80
2023-02-12T06:50:00.726Z,35.65
2023-02-12T06:52:27.942Z,37.08
2023-02-12T06:54:54.665Z,41.47
2023-02-12T06:57:21.486Z,35.45
2023-02-12T06:59:49.523Z,38.72
2023-02-12T07:02:16.215Z,37.25
2023-02-12T07:04:42.987Z,36.60
2023-02-12T07:07:09.668Z,37.72
2023-02-12T07:09:36.412Z,37.13
2023-02-12T07:12:03.510Z,36.65
2023-02-12T07:14:30.335Z,35.90
2023-02-12T07:16:57.588Z,36.28
2023-02-12T07:19:24.537Z,36.50
2023-02-12T07:21:51.281Z,35.78
2023-02-12T07:24:20.977Z,37.55
2023-02-12T07:26:47.842Z,33.85
2023-02-12T07:29:14.757Z,34.83
2023-02-12T07:31:41.789Z,35.55
2023-02-12T07:34:09.547Z,33.97
2023-02-12T07:36:37.245Z,34.22
2023-02-12T07:39:04.362Z,35.30
2023-02-12T07:41:33.752Z,36.83
2023-02-12T07:44:06.793Z,36.08
2023-02-12T07:46:42.736Z,33.85
2023-02-12T07:49:17.339Z,33.55
2023-02-12T07:51:44.133Z,31.77
2023-02-12T07:54:12.071Z,35.47
2023-02-12T07:56:41.164Z,35.58
2023-02-12T07:59:11.553Z,35.00
2023-02-12T08:01:40.749Z,34.42
2023-02-12T08:04:10.432Z,30.95
2023-02-12T08:06:40.096Z,34.10
2023-02-12T08:09:09.999Z,32.38
2023-02-12T08:11:38.542Z,33.90
2023-02-12T08:14:05.661Z,33.50
2023-02-12T08:16:37.323Z,31.98
2023-02-12T08:19:17.098Z,33.72
2023-02-12T08:21:47.350Z,34.10
2023-02-12T08:24:14.185Z,34.80
2023-02-12T08:26:41.055Z,36.92
2023-02-12T08:29:56.839Z,33.33
2023-02-12T08:32:23.586Z,31.05
2023-02-12T08:34:50.328Z,33.40
2023-02-12T08:37:17.096Z,33.60
2023-02-12T08:39:43.856Z,31.67
2023-02-12T08:42:10.603Z,33.30
2023-02-12T08:44:37.320Z,31.77
2023-02-12T08:47:04.280Z,31.63
2023-02-12T08:49:31.294Z,30.20
2023-02-12T08:51:59.862Z,29.67
2023-02-12T08:54:27.972Z,26.20
2023-02-12T08:56:56.838Z,28.07
2023-02-12T08:59:23.770Z,28.67
2023-02-12T09:01:52.166Z,26.27
2023-02-12T09:04:24.217Z,27.77
2023-02-12T09:06:51.864Z,27.73
2023-02-12T09:09:19.890Z,29.00
2023-02-12T09:11:47.804Z,27.40
2023-02-12T09:14:16.816Z,26.37
2023-02-12T09:16:43.746Z,28.60
2023-02-12T09:19:13.336Z,26.00
2023-02-12T09:21:40.589Z,25.10
2023-02-12T09:24:07.423Z,23.60
2023-02-12T09:26:34.240Z,23.40
2023-02-12T09:29:02.671Z,26.88
2023-02-12T09:31:31.628Z,26.92
2023-02-12T09:34:01.061Z,24.60
2023-02-12T09:36:27.953Z,23.77
2023-02-12T09:38:55.076Z,25.63
2023-02-12T09:41:59.000Z,26.20
2023-02-12T09:44:52.494Z,25.52
2023-02-12T09:47:33.180Z,23.33
2023-02-12T09:50:34.767Z,21.25
2023-02-12T09:53:02.313Z,24.50
2023-02-12T09:55:34.522Z,23.27
2023-02-12T09:58:04.868Z,22.40
2023-02-12T10:00:32.190Z,21.63
2023-02-12T10:03:05.905Z,22.00
2023-02-12T10:05:42.877Z,22.40
2023-02-12T10:08:50.228Z,21.90
2023-02-12T10:11:53.231Z,23.07
2023-02-12T10:14:42.021Z,23.50
2023-02-12T10:17:27.708Z,25.23
2023-02-12T10:20:16.085Z,24.83
2023-02-12T10:23:01.311Z,24.47
2023-02-12T10:25:53.833Z,22.97
2023-02-12T10:28:29.197Z,22.70
2023-02-12T10:30:59.896Z,20.02
2023-02-12T10:33:37.785Z,18.23
2023-02-12T10:36:14.525Z,16.70
2023-02-12T10:38:47.115Z,18.30
2023-02-12T10:41:16.545Z,19.23
2023-02-12T10:43:43.543Z,18.08
2023-02-12T10:46:17.374Z,19.75
2023-02-12T10:48:47.948Z,18.23
2023-02-12T10:51:53.204Z,13.70
2023-02-12T10:54:40.263Z,11.35
2023-02-12T10:57:27.955Z,12.13
2023-02-12T10:59:58.024Z,16.10
2023-02-12T11:02:34.090Z,14.00
2023-02-12T11:05:22.014Z,6.72
2023-02-12T11:07:50.980Z,5.63
2023-02-12T11:10:39.910Z,7.60
2023-02-12T11:13:22.235Z,8.30
2023-02-12T11:15:49.873Z,8.20
2023-02-12T11:18:26.786Z,8.43
2023-02-12T11:20:57.749Z,9.67
2023-02-12T11:23:46.095Z,10.73
2023-02-12T11:26:19.084Z,10.27
2023-02-12T11:29:17.182Z,8.27
2023-02-12T11:32:08.697Z,8.33
2023-02-12T11:34:36.560Z,9.60
2023-02-12T11:37:04.063Z,7.90
2023-02-12T11:39:38.341Z,9.63
2023-02-12T11:42:23.925Z,8.57
2023-02-12T11:44:57.047Z,7.37
2023-02-12T11:47:36.137Z,8.13
2023-02-12T11:50:26.837Z,8.30
2023-02-12T11:52:58.633Z,6.27
2023-02-12T11:55:29.212Z,5.57
2023-02-12T11:58:20.508Z,5.60
2023-02-12T12:00:52.205Z,5.70
2023-02-12T12:03:30.583Z,6.33
2023-02-12T12:06:07.161Z,6.23
2023-02-12T12:08:49.885Z,5.80
2023-02-12T12:11:22.056Z,5.90
2023-02-12T12:14:00.888Z,4.57
2023-02-12T12:17:13.094Z,5.60
2023-02-12T12:19:56.227Z,5.70
2023-02-12T12:22:39.774Z,6.67
2023-02-12T12:25:27.501Z,4.57
2023-02-12T12:28:08.420Z,5.38
2023-02-12T12:31:09.896Z,5.20
2023-02-12T12:33:52.131Z,6.60
2023-02-12T12:37:03.477Z,7.60
2023-02-12T12:39:56.166Z,8.17
2023-02-12T12:42:53.543Z,8.10
2023-02-12T12:45:50.322Z,8.60
2023-02-12T12:48:32.160Z,9.90
2023-02-12T12:51:31.302Z,8.03
2023-02-12T12:54:10.666Z,8.63
2023-02-12T12:56:52.219Z,12.60
2023-02-12T12:59:19.163Z,13.10
2023-02-12T13:02:04.584Z,11.07
2023-02-12T13:04:31.241Z,12.60
2023-02-12T13:07:10.014Z,11.43
2023-02-12T13:10:13.392Z,11.30
2023-02-12T13:12:55.454Z,11.07
2023-02-12T13:15:36.392Z,10.17
2023-02-12T13:18:13.787Z,8.90
2023-02-12T13:20:55.793Z,10.43
2023-02-12T13:23:39.208Z,10.03
2023-02-12T13:26:30.971Z,11.23
2023-02-12T13:29:17.331Z,11.70
2023-02-12T13:32:13.907Z,10.20
2023-02-12T13:34:43.396Z,9.70
2023-02-12T13:37:21.590Z,14.10
2023-02-12T13:39:50.070Z,10.90
2023-02-12T13:42:36.537Z,11.10
2023-02-12T13:45:25.167Z,9.93
2023-02-12T13:48:22.415Z,9.33
2023-02-12T13:51:02.861Z,9.80
2023-02-12T13:53:48.323Z,10.20
2023-02-12T13:56:43.940Z,10.20
2023-02-12T13:59:34.895Z,10.10
2023-02-12T14:02:26.666Z,9.47
2023-02-12T14:04:53.366Z,9.40
2023-02-12T14:07:22.051Z,10.17
2023-02-12T14:09:51.542Z,9.95
2023-02-12T14:12:32.247Z,9.77
2023-02-12T14:15:16.422Z,11.30
2023-02-12T14:17:57.023Z,9.37
2023-02-12T14:20:35.706Z,11.47
2023-02-12T14:23:20.428Z,10.20
2023-02-12T14:25:57.665Z,9.00
2023-02-12T14:28:48.876Z,9.60
2023-02-12T14:31:18.859Z,9.90
2023-02-12T14:33:50.664Z,8.90
2023-02-12T14:36:32.534Z,12.83
2023-02-12T14:39:02.049Z,8.30
2023-02-12T14:41:43.219Z,9.20
2023-02-12T14:44:23.247Z,10.10
2023-02-12T14:46:53.187Z,9.65
2023-02-12T14:49:34.366Z,11.43
2023-02-12T14:52:06.552Z,9.85
2023-02-12T14:54:43.131Z,11.63
2023-02-12T14:57:22.078Z,11.60
2023-02-12T14:59:50.264Z,10.70
2023-02-12T15:02:28.428Z,11.40
2023-02-12T15:05:02.330Z,12.37
2023-02-12T15:07:35.703Z,14.32
2023-02-12T15:10:15.273Z,12.67
2023-02-12T15:12:54.987Z,12.70
2023-02-12T15:15:34.722Z,11.93
2023-02-12T15:18:21.914Z,14.73
2023-02-12T15:20:55.117Z,13.85
2023-02-12T15:23:39.990Z,12.88
2023-02-12T15:26:15.509Z,14.80
2023-02-12T15:28:43.214Z,14.73
2023-02-12T15:31:11.036Z,14.13
2023-02-12T15:33:46.699Z,13.60
2023-02-12T15:36:21.326Z,13.27
2023-02-12T15:39:08.075Z,14.43
2023-02-12T15:41:41.908Z,14.98
2023-02-12T15:44:22.883Z,13.68
2023-02-12T15:47:11.056Z,15.20
2023-02-12T15:49:39.228Z,14.50
2023-02-12T15:52:16.591Z,14.68
2023-02-12T15:54:45.975Z,14.13
2023-02-12T15:57:19.930Z,14.90
2023-02-12T15:59:52.263Z,14.52
2023-02-12T16:02:30.046Z,14.32
2023-02-12T16:04:58.149Z,15.77
2023-02-12T16:07:36.155Z,15.60
2023-02-12T16:10:05.228Z,15.40
2023-02-12T16:12:36.855Z,16.85
2023-02-12T16:15:04.648Z,17.27
2023-02-12T16:17:34.324Z,15.57
2023-02-12T16:20:18.026Z,14.30
2023-02-12T16:22:47.759Z,16.08
2023-02-12T16:25:29.472Z,15.25
2023-02-12T16:28:06.910Z,18.08
2023-02-12T16:30:43.003Z,16.17
2023-02-12T16:33:40.609Z,16.42
2023-02-12T16:36:20.176Z,15.02
2023-02-12T16:38:59.713Z,15.88
2023-02-12T16:41:27.558Z,17.40
2023-02-12T16:43:54.213Z,16.63
2023-02-12T16:46:20.956Z,15.77
2023-02-12T16:48:51.704Z,17.58
2023-02-12T16:51:21.185Z,17.33
2023-02-12T16:53:50.082Z,19.65
2023-02-12T16:56:18.718Z,18.85
2023-02-12T16:58:50.944Z,16.20
2023-02-12T17:01:22.555Z,17.23
2023-02-12T17:03:51.128Z,17.73
2023-02-12T17:06:29.715Z,16.02
2023-02-12T17:08:57.061Z,17.45
2023-02-12T17:11:24.702Z,18.45
2023-02-12T17:13:53.217Z,16.92
2023-02-12T17:16:30.208Z,17.80
2023-02-12T17:18:58.037Z,17.50
2023-02-12T17:21:28.224Z,16.90
2023-02-12T17:23:55.240Z,18.48
2023-02-12T17:26:23.260Z,19.40
2023-02-12T17:28:50.123Z,17.25
2023-02-12T17:31:17.159Z,16.67
2023-02-12T17:33:44.478Z,17.70
2023-02-12T17:36:12.193Z,16.65
2023-02-12T17:38:38.925Z,16.42
2023-02-12T17:41:10.632Z,14.75
2023-02-12T17:43:37.443Z,15.93
2023-02-12T17:46:13.120Z,14.85
2023-02-12T17:48:40.674Z,16.77
2023-02-12T17:51:09.944Z,15.00
2023-02-12T17:53:36.721Z,17.25
2023-02-12T17:56:03.987Z,16.40
2023-02-12T17:58:31.272Z,14.73
2023-02-12T18:01:03.689Z,13.80
2023-02-12T18:03:30.408Z,14.20
2023-02-12T18:05:57.053Z,14.80
2023-02-12T18:08:23.802Z,14.90
2023-02-12T18:10:50.602Z,14.40
2023-02-12T18:13:17.280Z,17.30
2023-02-12T18:15:44.083Z,15.20
2023-02-12T18:18:10.884Z,13.98
2023-02-12T18:20:40.808Z,14.95
2023-02-12T18:23:08.562Z,14.82
2023-02-12T18:25:40.094Z,13.48
2023-02-12T18:28:06.955Z,14.65
2023-02-12T18:30:33.895Z,14.80
2023-02-12T18:33:00.687Z,16.08
2023-02-12T18:35:27.536Z,15.23
2023-02-12T18:37:54.284Z,18.10
2023-02-12T18:40:21.173Z,15.60
2023-02-12T18:42:47.977Z,16.83
2023-02-12T18:45:14.727Z,17.25
2023-02-12T18:47:41.975Z,16.83
2023-02-12T18:50:09.279Z,16.40
2023-02-12T18:52:37.171Z,16.45
2023-02-12T18:55:05.857Z,15.70
2023-02-12T18:57:32.787Z,17.55
2023-02-12T18:59:59.575Z,17.67
2023-02-12T19:02:26.398Z,17.77
2023-02-12T19:04:54.222Z,18.27
2023-02-12T19:07:21.126Z,18.30
2023-02-12T19:09:47.950Z,18.65
2023-02-12T19:12:14.737Z,19.73
2023-02-12T19:14:41.434Z,20.33
2023-02-12T19:17:08.216Z,19.48
2023-02-12T19:19:35.014Z,18.42
2023-02-12T19:22:01.770Z,20.08
2023-02-12T19:24:40.927Z,20.80
2023-02-12T19:27:12.506Z,19.42
2023-02-12T19:29:39.284Z,20.45
2023-02-12T19:32:06.061Z,20.75
2023-02-12T19:34:32.944Z,19.55
2023-02-12T19:36:59.701Z,18.80
2023-02-12T19:39:26.563Z,20.58
2023-02-12T19:41:53.509Z,19.38
2023-02-12T19:44:22.984Z,16.98
2023-02-12T19:46:51.390Z,18.83
2023-02-12T19:49:20.912Z,21.65
2023-02-12T19:51:48.055Z,20.13
2023-02-12T19:54:16.519Z,19.30
2023-02-12T19:56:44.010Z,20.77
2023-02-12T19:59:13.349Z,23.77
2023-02-12T20:01:40.451Z,21.60
2023-02-12T20:04:07.560Z,21.00
2023-02-12T20:06:36.678Z,20.77
2023-02-12T20:09:06.076Z,19.25
2023-02-12T20:11:39.807Z,22.38
2023-02-12T20:14:08.968Z,21.95
2023-02-12T20:16:38.262Z,22.45
2023-02-12T20:19:08.545Z,21.50
2023-02-12T20:21:35.687Z,21.70
2023-02-12T20:24:02.666Z,21.08
2023-02-12T20:26:40.529Z,20.23
2023-02-12T20:29:07.323Z,19.90
2023-02-12T20:31:37.527Z,22.60
2023-02-12T20:34:11.350Z,20.33
2023-02-12T20:36:40.427Z,21.17
2023-02-12T20:39:10.574Z,20.88
2023-02-12T20:41:37.430Z,19.70
2023-02-12T20:44:06.104Z,21.10
2023-02-12T20:46:36.182Z,19.05
2023-02-12T20:49:03.294Z,18.90
2023-02-12T20:51:30.003Z,20.85
2023-02-12T20:53:59.268Z,27.98
2023-02-12T20:56:29.245Z,20.38
2023-02-12T20:58:56.362Z,21.02
2023-02-12T21:01:25.879Z,18.55
2023-02-12T21:03:53.974Z,21.45
2023-02-12T21:06:22.828Z,18.48
2023-02-12T21:08:51.251Z,23.83
2023-02-12T21:11:23.617Z,24.60
2023-02-12T21:14:18.418Z,25.42
2023-02-12T21:16:46.830Z,19.27
2023-02-12T21:19:17.046Z,20.92
2023-02-12T21:21:45.344Z,21.38
2023-02-12T21:24:18.147Z,20.48
2023-02-12T21:26:44.964Z,20.23
2023-02-12T21:29:11.817Z,22.23
2023-02-12T21:31:41.318Z,19.88
2023-02-12T21:34:11.553Z,22.73
2023-02-12T21:36:39.864Z,22.13
2023-02-12T21:39:08.647Z,19.52
2023-02-12T21:41:37.843Z,20.40
2023-02-12T21:44:13.397Z,20.05
2023-02-12T21:46:40.847Z,19.38
2023-02-12T21:49:08.142Z,18.50
2023-02-12T21:51:38.175Z,19.67
2023-02-12T21:54:08.041Z,19.92
2023-02-12T21:56:37.039Z,18.88
2023-02-12T21:59:04.498Z,20.90
2023-02-12T22:01:34.315Z,18.60
2023-02-12T22:04:02.246Z,19.05
2023-02-12T22:06:29.584Z,21.25
2023-02-12T22:09:00.560Z,23.77
2023-02-12T22:11:27.285Z,19.45
2023-02-12T22:13:54.129Z,20.85
2023-02-12T22:16:26.452Z,22.77
2023-02-12T22:18:55.616Z,18.60
2023-02-12T22:21:24.258Z,20.00
2023-02-12T22:23:51.712Z,20.73
2023-02-12T22:26:21.506Z,19.23
2023-02-12T22:28:50.485Z,20.25
2023-02-12T22:31:21.971Z,20.67
2023-02-12T22:34:11.820Z,19.73
2023-02-12T22:36:39.964Z,21.77
2023-02-12T22:39:07.272Z,18.63
2023-02-12T22:41:34.890Z,18.05
2023-02-12T22:44:05.059Z,19.20
2023-02-12T22:46:33.153Z,18.10
2023-02-12T22:49:00.634Z,16.95
2023-02-12T22:51:29.454Z,16.65
2023-02-12T22:53:56.780Z,17.85
2023-02-12T22:56:24.842Z,17.80
2023-02-12T22:58:56.730Z,17.48
2023-02-12T23:01:24.053Z,18.17
2023-02-12T23:03:51.524Z,19.67
2023-02-12T23:06:20.651Z,17.77
2023-02-12T23:08:56.174Z,16.52
2023-02-12T23:11:24.531Z,19.00
2023-02-12T23:13:52.047Z,19.23
2023-02-12T23:16:18.899Z,19.48
2023-02-12T23:18:45.798Z,18.45
2023-02-12T23:21:13.360Z,17.30
2023-02-12T23:23:40.494Z,19.40
2023-02-12T23:26:07.414Z,18.67
2023-02-12T23:28:34.249Z,16.70
2023-02-12T23:31:01.606Z,18.65
2023-02-12T23:33:28.698Z,14.30
2023-02-12T23:35:55.534Z,14.43
2023-02-12T23:38:22.509Z,15.70
2023-02-12T23:40:49.324Z,18.10
2023-02-12T23:43:16.258Z,18.23
2023-02-12T23:45:44.687Z,14.82
2023-02-12T23:48:12.009Z,16.35
2023-02-12T23:50:39.055Z,18.55
2023-02-12T23:53:05.831Z,17.23
2023-02-12T23:55:35.437Z,16.85
2023-02-12T23:58:03.210Z,15.90
